Terminal Aerodrome Forecast
Issued by NWS Cleveland, OH

Home | Current Version | Previous Version | Text Only | Print | Product List | Glossary On
Versions: 1 2 3 4 5 6 7 8 9 10 11 12 13 14
000
FTUS41 KCLE 292334
TAFERI
TAF
KERI 292334Z 3000/3024 04012KT P6SM SCT080 OVC150
     FM300200 08003KT P6SM BKN080 OVC150
      TEMPO 3009/3013 5SM HZ BKN015
     FM301400 12008KT P6SM SCT045 BKN120
     FM301800 06012KT P6SM VCTS BKN045CB=

USA.gov is the U.S. government's official web portal to all federal, state and local government web resources and services.